Time;durP1;ratioP1;P1;durP2;ratioP2;P2;SDS_P1;SDS_P2;PMS_P1;PMS_P2;Temp;Humidity;BMP_temperature;BMP_pressure;BME280_temperature;BME280_humidity;BME280_pressure;Samples;Min_cycle;Max_cycle;Signal;HPM_P1;HPM_P2
2024/01/11 07:01:27;;;;;;;0.73;0.73;;;-2.80;99.90;-1.00;103090.00;;;;6049840;22;4156952;-72
2024/01/11 07:04:03;;;;;;;2.60;2.50;;;-2.90;99.90;-0.40;103008.00;;;;6189807;23;20452;-72
2024/01/11 07:06:45;;;;;;;1.80;1.80;;;-2.80;99.90;-0.50;103077.00;;;;6217082;23;20196;-72
2024/01/11 07:09:20;;;;;;;3.07;2.87;;;-2.70;99.90;-0.50;103070.00;;;;6190715;23;20138;-72
2024/01/11 07:12:27;;;;;;;1.27;1.27;;;-2.80;99.90;-0.80;103023.00;;;;6190598;23;20160;-71
2024/01/11 07:15:30;;;;;;;4.73;2.07;;;-2.70;99.90;-1.20;103087.00;;;;6191455;23;20180;-72
2024/01/11 07:18:34;;;;;;;1.60;1.07;;;-3.00;99.90;-1.20;103076.00;;;;6185557;23;20467;-72
2024/01/11 07:21:47;;;;;;;3.13;2.90;;;-2.90;99.90;-1.40;103084.00;;;;6217263;23;20542;-72
2024/01/11 07:24:38;;;;;;;1.30;1.23;;;-3.00;99.90;-1.80;103101.00;;;;6217319;23;20610;-72
2024/01/11 07:27:44;;;;;;;3.67;1.53;;;-3.20;99.90;-1.90;103099.00;;;;6190431;23;20142;-72
2024/01/11 07:30:46;;;;;;;2.67;1.13;;;-3.30;99.90;-1.50;103000.00;;;;6161994;23;20166;-73
2024/01/11 07:34:17;;;;;;;1.77;1.67;;;-3.30;99.90;-1.60;103031.00;;;;6157843;23;20194;-73
2024/01/11 07:37:15;;;;;;;2.00;1.70;;;-3.20;99.90;-1.30;102992.00;;;;6194448;23;20142;-72
2024/01/11 07:40:10;;;;;;;1.53;1.43;;;-3.10;99.90;-0.40;103069.00;;;;6189946;23;20142;-71
2024/01/11 07:43:05;;;;;;;1.80;1.70;;;-2.90;99.90;-0.10;103066.00;;;;6217144;23;20173;-71
2024/01/11 07:45:56;;;;;;;0.47;0.47;;;-2.80;99.90;-1.00;103106.00;;;;6165733;23;20719;-73
2024/01/11 07:48:30;;;;;;;5.03;4.63;;;-2.80;99.90;-1.00;103093.00;;;;6166129;23;20224;-72
2024/01/11 07:51:02;;;;;;;1.93;1.83;;;-2.90;99.90;-0.70;103092.00;;;;6190039;23;20160;-72
2024/01/11 07:53:37;;;;;;;0.20;0.20;;;-2.90;99.90;-0.60;103072.00;;;;6191454;23;20502;-72
2024/01/11 07:56:40;;;;;;;1.67;1.57;;;-3.00;99.90;-0.40;103101.00;;;;6189730;23;20163;-72
2024/01/11 07:59:13;;;;;;;3.57;3.23;;;-2.80;99.90;-0.70;103097.00;;;;6192004;23;20142;-72
2024/01/11 08:01:43;;;;;;;3.50;3.03;;;-2.80;99.90;-0.60;103117.00;;;;6166512;23;20158;-73
2024/01/11 08:04:21;;;;;;;0.80;0.80;;;-2.70;99.90;-0.90;103123.00;;;;6165756;23;20189;-73
2024/01/11 08:06:47;;;;;;;1.73;1.70;;;-2.90;99.90;-0.70;103098.00;;;;6215501;23;20161;-72
2024/01/11 08:09:22;;;;;;;4.03;3.53;;;-2.90;99.90;-0.20;103111.00;;;;6216853;23;20147;-72
2024/01/11 08:11:54;;;;;;;1.13;1.13;;;-2.70;99.90;-0.60;103134.00;;;;6189262;23;20196;-72
2024/01/11 08:14:21;;;;;;;1.00;1.00;;;-2.70;99.90;-0.40;103097.00;;;;6190729;23;20149;-72
2024/01/11 08:17:17;;;;;;;0.30;0.30;;;-2.70;99.90;-1.10;103141.00;;;;6190295;23;20166;-72
2024/01/11 08:19:55;;;;;;;1.63;1.53;;;-2.70;99.90;-1.00;103153.00;;;;6168261;23;20455;-72
2024/01/11 08:22:43;;;;;;;17.37;3.40;;;-2.80;99.90;-0.70;103139.00;;;;6165323;23;20225;-72
2024/01/11 08:25:09;;;;;;;1.97;1.90;;;-2.70;99.90;0.00;103076.00;;;;6165211;23;20163;-72
2024/01/11 08:27:38;;;;;;;0.70;0.70;;;-2.50;99.90;0.70;103123.00;;;;6164851;23;20182;-72
2024/01/11 08:30:12;;;;;;;3.40;3.30;;;-2.10;99.90;0.80;103132.00;;;;6189676;23;20250;-72
2024/01/11 08:32:44;;;;;;;0.40;0.40;;;-1.90;99.90;1.10;103114.00;;;;6164381;23;20158;-72
2024/01/11 08:35:18;;;;;;;1.07;1.07;;;-1.70;99.90;0.90;103156.00;;;;6165400;23;20519;-72
2024/01/11 08:37:45;;;;;;;2.67;2.47;;;-1.70;99.90;0.70;103162.00;;;;6165118;23;20153;-72
2024/01/11 08:40:31;;;;;;;4.40;4.10;;;-1.80;99.90;-0.70;103179.00;;;;6216025;23;20138;-72
2024/01/11 08:42:59;;;;;;;2.47;2.00;;;-2.10;99.90;0.70;103147.00;;;;6189581;23;20166;-72
2024/01/11 08:45:51;;;;;;;4.47;4.27;;;-2.00;99.90;0.00;103151.00;;;;6216474;23;20472;-73
2024/01/11 08:48:26;;;;;;;1.33;1.33;;;-2.10;99.90;0.90;103146.00;;;;6216597;23;20177;-72
2024/01/11 08:51:50;;;;;;;0.67;0.63;;;-1.90;99.90;0.90;103100.00;;;;6164421;23;20228;-71
2024/01/11 08:54:16;;;;;;;0.90;0.90;;;-1.60;99.90;1.10;103171.00;;;;6216215;23;20524;-73
2024/01/11 08:56:50;;;;;;;5.00;2.60;;;-1.50;99.90;1.40;103177.00;;;;6216045;23;20149;-73
2024/01/11 08:59:19;;;;;;;1.07;1.07;;;-1.50;99.90;1.60;103192.00;;;;6190276;23;20239;-73
2024/01/11 09:01:45;;;;;;;0.43;0.43;;;-1.20;99.90;1.90;103194.00;;;;6164881;23;20169;-73
2024/01/11 09:04:12;;;;;;;1.80;1.80;;;-1.10;99.90;1.40;103189.00;;;;6216075;23;20189;-73
2024/01/11 09:06:38;;;;;;;0.87;0.87;;;-1.10;99.90;1.50;103198.00;;;;6189116;23;20158;-72
2024/01/11 09:09:09;;;;;;;1.43;1.43;;;-1.00;99.90;2.10;103152.00;;;;6189775;23;20146;-73
2024/01/11 09:12:12;;;;;;;2.10;1.63;;;-0.90;99.90;2.20;103125.00;;;;6216112;23;20460;-73
2024/01/11 09:14:39;;;;;;;1.20;1.20;;;-0.80;99.90;2.10;103128.00;;;;6209743;23;20171;-70
2024/01/11 09:17:06;;;;;;;2.30;2.20;;;-0.70;99.90;2.60;103186.00;;;;6215466;23;20219;-73
2024/01/11 09:19:54;;;;;;;0.70;0.70;;;-0.60;99.90;2.30;103200.00;;;;6189577;23;20150;-72
2024/01/11 09:22:23;;;;;;;1.90;1.80;;;-0.60;99.90;2.60;103192.00;;;;6164454;23;20171;-72
2024/01/11 09:24:56;;;;;;;2.40;2.40;;;-0.50;99.90;2.10;103215.00;;;;6189146;23;20161;-72
2024/01/11 09:27:36;;;;;;;1.17;1.17;;;-0.50;99.90;2.80;103201.00;;;;6189215;23;20190;-72
2024/01/11 09:30:26;;;;;;;0.70;0.70;;;-0.30;99.90;2.50;103209.00;;;;6188863;23;20154;-72
2024/01/11 09:33:12;;;;;;;0.23;0.23;;;-0.30;99.90;2.90;103216.00;;;;6171983;23;20192;-72
2024/01/11 09:35:42;;;;;;;1.63;1.53;;;-0.20;99.90;2.70;103230.00;;;;6189773;23;20657;-72
2024/01/11 09:38:13;;;;;;;0.50;0.50;;;-0.20;99.90;2.90;103178.00;;;;6162871;23;20172;-73
2024/01/11 09:40:39;;;;;;;1.43;1.33;;;-0.10;99.90;2.20;103224.00;;;;6215814;23;20142;-73
2024/01/11 09:43:34;;;;;;;7.20;6.63;;;-0.20;99.90;2.60;103233.00;;;;6189314;23;20249;-71
2024/01/11 09:46:07;;;;;;;1.33;1.30;;;-0.20;99.90;2.50;103248.00;;;;6191376;23;20602;-71
2024/01/11 09:48:39;;;;;;;1.73;1.63;;;0.00;99.90;3.10;103235.00;;;;6189691;23;20446;-71
2024/01/11 09:51:34;;;;;;;2.43;2.33;;;0.10;99.90;2.30;103255.00;;;;6216072;23;20170;-70
2024/01/11 09:54:00;;;;;;;2.83;2.63;;;0.30;99.90;2.80;103258.00;;;;6163010;23;20488;-71
2024/01/11 09:56:29;;;;;;;0.70;0.70;;;0.10;99.90;2.70;103262.00;;;;6189213;23;20149;-67
2024/01/11 09:58:56;;;;;;;7.00;2.70;;;0.20;99.90;3.40;103243.00;;;;6188736;23;20153;-74
2024/01/11 10:01:25;;;;;;;1.20;1.20;;;0.50;99.90;3.70;103259.00;;;;6163966;23;20612;-73
2024/01/11 10:03:57;;;;;;;2.70;2.57;;;0.80;99.90;3.50;103267.00;;;;6189063;23;20220;-72
2024/01/11 10:06:26;;;;;;;0.63;0.63;;;0.80;99.90;3.70;103263.00;;;;6164325;23;20158;-72
2024/01/11 10:08:57;;;;;;;7.80;2.47;;;1.00;99.90;3.90;103256.00;;;;6189171;23;20195;-71
2024/01/11 10:11:25;;;;;;;1.10;1.10;;;1.20;99.90;3.50;103287.00;;;;6215866;23;20161;-72
2024/01/11 10:14:40;;;;;;;1.17;1.17;;;1.00;99.90;4.10;103267.00;;;;6215504;23;20579;-71
2024/01/11 10:17:26;;;;;;;3.20;2.47;;;1.40;99.90;3.10;103289.00;;;;6189527;23;20150;-73
2024/01/11 10:19:58;;;;;;;4.47;4.07;;;1.50;99.90;3.50;103290.00;;;;6163900;23;20216;-68
2024/01/11 10:33:30;;;;;;;7.83;7.10;;;0.20;99.90;2.80;103143.00;;;;5156825;27;20586;-72
2024/01/11 10:36:01;;;;;;;10.27;4.10;;;0.60;99.90;3.10;103170.00;;;;5120823;28;20175;-74
2024/01/11 10:38:36;;;;;;;3.80;1.80;;;1.10;99.90;3.30;103231.00;;;;5132539;27;20179;-75
2024/01/11 10:41:06;;;;;;;5.43;2.53;;;1.30;99.90;2.60;103268.00;;;;5097994;27;20201;-75
2024/01/11 10:43:37;;;;;;;3.23;2.73;;;1.10;99.90;2.60;103248.00;;;;5120350;27;20183;-76
2024/01/11 10:46:33;;;;;;;1.17;1.17;;;1.10;99.90;4.10;103265.00;;;;5113960;27;20228;-74
2024/01/11 10:49:03;;;;;;;2.70;2.50;;;1.20;99.90;4.00;103220.00;;;;5115819;27;20183;-74
2024/01/11 10:51:34;;;;;;;3.60;2.40;;;1.40;99.90;4.50;103206.00;;;;5118668;27;20191;-75
2024/01/11 10:54:01;;;;;;;5.20;4.00;;;1.70;99.90;4.70;103277.00;;;;5130478;27;20591;-75
2024/01/11 10:56:30;;;;;;;5.93;3.70;;;2.20;99.90;4.20;103298.00;;;;5115711;27;20420;-76
2024/01/11 10:58:58;;;;;;;6.93;1.63;;;2.00;99.90;3.20;103322.00;;;;5130531;27;20186;-73
2024/01/11 11:01:40;;;;;;;1.17;1.07;;;1.60;99.90;4.20;103297.00;;;;5115206;27;20256;-75
2024/01/11 11:04:46;;;;;;;4.13;3.83;;;1.60;99.90;4.30;103299.00;;;;5138040;27;20190;-76
2024/01/11 11:07:16;;;;;;;5.43;1.77;;;1.70;99.90;5.10;103296.00;;;;5110166;27;20210;-75
2024/01/11 11:09:51;;;;;;;4.70;3.20;;;2.10;99.90;4.90;103301.00;;;;5126423;27;20704;-73
2024/01/11 11:12:19;;;;;;;9.83;6.53;;;2.50;99.90;4.30;103279.00;;;;5138519;27;20206;-73
2024/01/11 11:14:47;;;;;;;1.13;1.13;;;2.20;99.90;4.30;103316.00;;;;5127820;27;20648;-73
2024/01/11 11:17:28;;;;;;;2.20;2.07;;;2.00;99.90;3.50;103303.00;;;;5128894;27;20534;-74
2024/01/11 11:19:56;;;;;;;1.50;1.43;;;1.80;99.90;4.20;103298.00;;;;5110791;28;20561;-75
2024/01/11 11:22:25;;;;;;;0.67;0.67;;;1.80;99.90;4.70;103262.00;;;;5119284;27;20194;-73
2024/01/11 11:25:05;;;;;;;4.10;3.80;;;2.00;99.90;4.30;103242.00;;;;5114189;28;20203;-74
2024/01/11 11:27:39;;;;;;;4.03;3.73;;;2.10;99.90;5.00;103267.00;;;;5112831;27;20186;-75
2024/01/11 11:30:11;;;;;;;1.87;1.80;;;2.40;99.90;5.80;103237.00;;;;5131067;27;20182;-74
2024/01/11 11:32:46;;;;;;;3.33;3.00;;;2.70;99.90;5.90;103274.00;;;;5124857;27;20245;-73
2024/01/11 11:35:13;;;;;;;2.17;1.57;;;3.10;99.90;6.30;103263.00;;;;5120212;28;20190;-75
2024/01/11 11:37:44;;;;;;;3.70;2.70;;;3.30;99.90;5.60;103290.00;;;;5116991;27;20573;-76
2024/01/11 11:40:37;;;;;;;0.90;0.90;;;3.10;99.90;4.90;103314.00;;;;5112296;27;20179;-75
2024/01/11 11:43:05;;;;;;;4.60;4.20;;;2.70;99.90;5.80;103292.00;;;;5099853;27;20195;-77
2024/01/11 11:45:41;;;;;;;5.53;4.43;;;2.90;99.90;5.30;103291.00;;;;5107697;28;20234;-79
2024/01/11 11:48:31;;;;;;;7.13;4.60;;;2.90;99.90;4.90;103321.00;;;;5114425;27;20266;-78
2024/01/11 11:51:15;;;;;;;3.07;2.87;;;2.70;99.90;4.80;103336.00;;;;5103517;28;20192;-79
2024/01/11 11:53:45;;;;;;;2.60;2.40;;;2.50;99.90;5.20;103317.00;;;;5106735;28;20176;-78
2024/01/11 11:56:34;;;;;;;1.53;1.13;;;2.60;99.90;4.50;103338.00;;;;5111105;27;20228;-77
2024/01/11 11:59:28;;;;;;;4.43;2.73;;;2.50;99.90;4.20;103266.00;;;;5118237;27;20600;-78
2024/01/11 12:03:00;;;;;;;3.07;2.87;;;2.10;99.90;4.00;103347.00;;;;5102814;28;20202;-78
2024/01/11 12:06:02;;;;;;;5.90;4.43;;;2.20;99.90;4.20;103324.00;;;;5109081;27;20199;-78
2024/01/11 12:09:23;;;;;;;7.53;3.07;;;2.30;99.90;4.40;103342.00;;;;5109319;27;20194;-78
2024/01/11 12:12:44;;;;;;;1.50;1.23;;;2.30;99.90;4.90;103321.00;;;;5097839;28;20192;-78
2024/01/11 12:16:04;;;;;;;1.83;1.33;;;2.50;99.90;4.70;103314.00;;;;5106618;28;20180;-78
2024/01/11 12:18:56;;;;;;;5.13;4.43;;;2.70;99.90;4.30;103328.00;;;;5104441;27;20265;-79
2024/01/11 12:22:00;;;;;;;7.50;3.90;;;2.30;99.90;4.70;103257.00;;;;5118924;27;20188;-74
2024/01/11 12:24:43;;;;;;;3.73;2.43;;;2.40;99.90;4.10;103340.00;;;;5115832;28;20182;-76
2024/01/11 12:27:41;;;;;;;1.83;1.57;;;2.10;99.90;4.00;103335.00;;;;5099252;28;20178;-76
2024/01/11 12:30:17;;;;;;;0.37;0.37;;;1.90;99.90;4.50;103336.00;;;;5103722;28;20226;-77
2024/01/11 12:32:44;;;;;;;2.27;2.17;;;2.20;99.90;4.70;103321.00;;;;5101723;28;20219;-77
2024/01/11 12:35:11;;;;;;;3.97;3.30;;;2.50;99.90;4.20;103355.00;;;;5104157;27;20175;-77
2024/01/11 12:37:37;;;;;;;5.20;3.07;;;2.30;99.90;5.20;103309.00;;;;5099094;27;20594;-77
2024/01/11 12:40:03;;;;;;;2.53;2.33;;;2.50;99.90;4.60;103322.00;;;;5094324;28;20180;-78
2024/01/11 12:42:29;;;;;;;3.40;2.00;;;2.60;99.90;4.40;103336.00;;;;5097934;28;20191;-78
2024/01/11 12:44:55;;;;;;;0.67;0.67;;;2.40;99.90;5.50;103326.00;;;;5094927;27;20196;-77
2024/01/11 12:47:39;;;;;;;4.93;3.77;;;2.80;99.90;5.00;103315.00;;;;5127559;27;20242;-77
2024/01/11 12:50:09;;;;;;;2.00;1.73;;;2.80;99.90;5.00;103306.00;;;;5092913;27;20180;-77
2024/01/11 12:52:41;;;;;;;5.20;3.67;;;2.80;99.90;5.00;103309.00;;;;5104025;27;20214;-78
2024/01/11 12:55:46;;;;;;;0.20;0.20;;;2.80;99.90;6.00;103302.00;;;;5105543;27;20194;-77
2024/01/11 12:58:15;;;;;;;3.00;2.70;;;3.20;99.90;5.10;103310.00;;;;5104461;28;20171;-77
2024/01/11 13:00:46;;;;;;;5.10;3.83;;;3.00;99.90;5.10;103319.00;;;;5112957;27;20280;-77
2024/01/11 13:03:20;;;;;;;0.80;0.80;;;2.90;99.90;4.40;103315.00;;;;5104638;28;20238;-77
2024/01/11 13:05:51;;;;;;;9.17;6.30;;;2.70;99.90;4.20;103323.00;;;;5110683;27;20275;-78
2024/01/11 13:08:28;;;;;;;2.77;2.17;;;2.60;99.90;5.10;103309.00;;;;5132421;27;20251;-75
2024/01/11 13:11:06;;;;;;;3.03;2.50;;;2.60;99.90;4.60;103312.00;;;;5121480;27;20267;-78
2024/01/11 13:13:40;;;;;;;12.23;5.83;;;2.60;99.90;4.50;103314.00;;;;5099605;27;20185;-69
2024/01/11 13:16:15;;;;;;;5.20;3.53;;;2.50;99.90;6.20;103237.00;;;;5111678;27;20580;-74
2024/01/11 13:18:52;;;;;;;1.80;1.33;;;3.00;99.90;4.40;103300.00;;;;5087920;28;20702;-74
2024/01/11 13:21:26;;;;;;;7.03;4.37;;;2.80;99.90;4.90;103286.00;;;;5112891;27;20175;-74
2024/01/11 13:24:04;;;;;;;6.67;4.60;;;2.70;99.90;5.00;103273.00;;;;5109412;27;20239;-74
2024/01/11 13:26:38;;;;;;;3.60;2.30;;;2.80;99.90;5.00;103224.00;;;;5113136;28;20274;-74
2024/01/11 13:29:13;;;;;;;8.67;4.33;;;2.90;99.90;5.00;103282.00;;;;5126882;27;20624;-75
2024/01/11 13:31:47;;;;;;;3.83;3.50;;;2.80;99.90;4.20;103302.00;;;;5126111;27;20214;-74
2024/01/11 13:34:24;;;;;;;1.47;1.37;;;2.60;99.90;4.70;103299.00;;;;5097799;27;20544;-74
2024/01/11 13:36:59;;;;;;;4.93;3.90;;;2.50;99.90;4.30;103316.00;;;;5104002;28;20187;-75
2024/01/11 13:39:39;;;;;;;3.43;3.13;;;2.40;99.90;4.50;103310.00;;;;5096938;27;20263;-75
2024/01/11 13:42:15;;;;;;;5.10;4.63;;;2.30;99.90;4.70;103337.00;;;;5111292;28;20294;-74
2024/01/11 13:44:52;;;;;;;3.28;2.67;;;2.40;99.90;4.90;103333.00;;;;5088864;27;20417;-74
2024/01/11 13:47:29;;;;;;;2.17;1.73;;;2.50;99.90;4.50;103337.00;;;;5095739;28;20214;-75
2024/01/11 13:50:06;;;;;;;6.30;5.70;;;2.50;99.90;5.30;103327.00;;;;5108794;27;20200;-75
2024/01/11 13:52:41;;;;;;;6.37;4.80;;;2.60;99.90;4.30;103357.00;;;;5093906;27;20203;-75
2024/01/11 13:55:15;;;;;;;4.37;3.10;;;2.50;99.90;5.00;103326.00;;;;5095831;28;20180;-75
2024/01/11 13:57:50;;;;;;;8.57;6.33;;;2.50;99.90;4.30;103327.00;;;;5098102;28;20183;-75
2024/01/11 14:00:24;;;;;;;6.83;5.17;;;2.60;99.90;3.80;103242.00;;;;5094525;28;20184;-75
2024/01/11 14:02:55;;;;;;;5.67;4.27;;;2.30;99.90;3.50;103280.00;;;;5082293;27;20192;-75
2024/01/11 14:05:29;;;;;;;2.53;2.33;;;2.10;99.90;3.70;103234.00;;;;5090972;27;20180;-74
2024/01/11 14:08:16;;;;;;;1.73;1.63;;;2.00;99.90;3.70;103222.00;;;;5099974;28;20181;-74
2024/01/11 14:10:42;;;;;;;2.60;2.10;;;1.90;99.90;3.20;103152.00;;;;5086016;27;20648;-74
2024/01/11 14:13:16;;;;;;;4.53;3.70;;;1.60;99.90;3.20;103186.00;;;;5099166;28;20199;-74
2024/01/11 14:16:27;;;;;;;4.93;4.47;;;1.70;99.90;3.30;103199.00;;;;5093767;28;20195;-75
2024/01/11 14:19:28;;;;;;;3.57;2.87;;;1.60;99.90;2.80;103180.00;;;;5122803;27;20180;-74
2024/01/11 14:22:25;;;;;;;3.63;2.80;;;1.50;99.90;3.90;103188.00;;;;5108496;28;20189;-75
2024/01/11 14:25:21;;;;;;;6.23;4.00;;;1.60;99.90;3.00;103179.00;;;;5102014;28;20215;-75
2024/01/11 14:28:10;;;;;;;1.73;1.73;;;1.70;99.90;3.30;103181.00;;;;5105350;28;20269;-74
2024/01/11 14:31:04;;;;;;;0.37;0.37;;;1.70;99.90;3.60;103191.00;;;;5097712;28;20195;-75
2024/01/11 14:34:02;;;;;;;3.23;2.87;;;1.70;99.90;3.00;103179.00;;;;5120465;28;20547;-75
2024/01/11 14:36:48;;;;;;;5.83;4.47;;;1.80;99.90;3.10;103176.00;;;;5099650;28;20195;-75
2024/01/11 14:39:43;;;;;;;3.33;3.17;;;1.70;99.90;3.20;103183.00;;;;5105214;28;20214;-75
2024/01/11 14:42:20;;;;;;;4.77;4.37;;;1.70;99.90;3.40;103173.00;;;;5107521;28;20222;-74
2024/01/11 14:45:03;;;;;;;7.07;5.27;;;1.90;99.90;2.30;103163.00;;;;5113253;28;20252;-76
2024/01/11 14:47:37;;;;;;;4.90;3.57;;;1.60;99.90;2.30;103114.00;;;;5080851;28;20626;-74
2024/01/11 14:50:14;;;;;;;5.20;3.60;;;1.60;99.90;2.90;103166.00;;;;5095630;28;20198;-75
2024/01/11 14:52:57;;;;;;;1.70;1.60;;;1.50;99.90;3.30;103151.00;;;;5096274;28;20285;-74
2024/01/11 14:55:31;;;;;;;0.53;0.53;;;1.60;99.90;3.40;103095.00;;;;5095084;28;20282;-75
2024/01/11 14:58:08;;;;;;;0.90;0.90;;;1.80;99.90;3.50;103154.00;;;;5099279;28;20610;-75
2024/01/11 15:00:51;;;;;;;3.13;2.37;;;1.80;99.90;3.00;103152.00;;;;5107699;28;20172;-74
2024/01/11 15:03:18;;;;;;;1.03;0.80;;;1.90;99.90;3.30;103155.00;;;;5103825;28;20188;-74
2024/01/11 15:05:47;;;;;;;0.97;0.97;;;1.80;99.90;4.20;103140.00;;;;5108465;28;20188;-75
2024/01/11 15:08:13;;;;;;;0.97;0.97;;;2.00;99.90;5.00;103164.00;;;;5104926;28;20237;-75
2024/01/11 15:10:49;;;;;;;0.20;0.20;;;2.40;99.90;4.40;103167.00;;;;5118075;28;20188;-75
2024/01/11 15:13:28;;;;;;;0.20;0.20;;;2.40;99.90;5.60;103154.00;;;;5097758;28;20200;-75
2024/01/11 15:16:32;;;;;;;0.53;0.53;;;2.70;99.90;5.20;103166.00;;;;5100280;28;20183;-75
2024/01/11 15:19:21;;;;;;;1.47;1.37;;;2.60;99.90;5.90;103101.00;;;;5099630;27;20203;-77
2024/01/11 15:21:47;;;;;;;0.77;0.77;;;3.00;99.90;5.90;103164.00;;;;5095319;27;20188;-75
2024/01/11 15:24:53;;;;;;;0.30;0.30;;;3.10;99.90;4.50;103163.00;;;;5105754;27;20179;-75
2024/01/11 15:27:49;;;;;;;1.13;1.13;;;2.80;99.90;4.80;103177.00;;;;5109513;27;20282;-75
2024/01/11 15:30:41;;;;;;;0.20;0.20;;;2.70;99.90;5.10;103097.00;;;;5097488;27;20219;-75
2024/01/11 15:33:47;;;;;;;0.20;0.20;;;2.60;99.90;6.40;103183.00;;;;5104396;27;20262;-76
2024/01/11 15:36:14;;;;;;;0.20;0.20;;;3.20;99.90;6.50;103163.00;;;;5099978;27;20187;-76
2024/01/11 15:39:35;;;;;;;0.40;0.40;;;3.50;99.90;6.50;103177.00;;;;5102952;27;20206;-76
2024/01/11 15:42:38;;;;;;;0.50;0.50;;;3.50;99.90;6.30;103189.00;;;;5096627;27;20192;-76
2024/01/11 15:45:16;;;;;;;0.30;0.30;;;3.40;99.90;6.80;103191.00;;;;5109484;27;20183;-76
2024/01/11 15:48:17;;;;;;;0.30;0.30;;;3.50;99.90;6.50;103127.00;;;;5087090;27;20184;-76
2024/01/11 15:50:48;;;;;;;0.30;0.30;;;3.50;99.90;6.90;103202.00;;;;5087295;28;20211;-76
2024/01/11 15:53:31;;;;;;;0.30;0.30;;;3.70;99.90;6.60;103193.00;;;;5118775;27;20200;-76
2024/01/11 15:55:57;;;;;;;0.20;0.20;;;3.70;99.90;6.90;103200.00;;;;5092381;27;20187;-76
2024/01/11 15:58:31;;;;;;;0.20;0.20;;;3.80;99.90;7.30;103199.00;;;;5083361;28;20245;-76
2024/01/11 16:00:56;;;;;;;0.30;0.30;;;3.90;99.90;6.70;103212.00;;;;5106805;27;20292;-76
2024/01/11 16:03:24;;;;;;;0.30;0.30;;;3.80;99.90;6.60;103200.00;;;;5117351;27;20200;-75
2024/01/11 16:05:54;;;;;;;0.20;0.20;;;3.50;99.90;7.00;103176.00;;;;5116088;28;20192;-74
2024/01/11 16:08:21;;;;;;;0.23;0.23;;;3.70;99.90;7.00;103205.00;;;;5113448;27;20180;-75
2024/01/11 16:10:47;;;;;;;0.20;0.20;;;3.70;99.90;7.50;103153.00;;;;5114305;28;20191;-75
2024/01/11 16:13:19;;;;;;;0.33;0.33;;;4.00;99.90;7.60;103211.00;;;;5109110;27;20196;-74
2024/01/11 16:15:45;;;;;;;0.30;0.30;;;4.10;99.90;7.60;103209.00;;;;5110977;27;20215;-76
2024/01/11 16:18:11;;;;;;;0.30;0.30;;;4.20;99.90;7.10;103231.00;;;;5123547;27;20626;-74
2024/01/11 16:20:45;;;;;;;0.20;0.20;;;4.10;99.90;7.20;103222.00;;;;5121639;27;20191;-75
2024/01/11 16:23:13;;;;;;;0.20;0.20;;;3.90;99.90;6.40;103156.00;;;;5106904;27;20180;-75
2024/01/11 16:25:39;;;;;;;0.77;0.77;;;3.70;99.90;6.40;103146.00;;;;5081267;27;20200;-75
2024/01/11 16:28:08;;;;;;;0.20;0.20;;;3.50;99.90;6.70;103210.00;;;;5115498;27;20194;-76
2024/01/11 16:30:53;;;;;;;0.30;0.30;;;3.80;99.90;6.70;103142.00;;;;5089911;27;20189;-76
2024/01/11 16:33:19;;;;;;;0.70;0.70;;;3.70;99.90;6.60;103191.00;;;;5101014;27;20238;-76
2024/01/11 16:35:50;;;;;;;3.50;1.73;;;3.60;99.90;7.30;103174.00;;;;5100702;27;20184;-75
2024/01/11 16:38:16;;;;;;;3.80;3.60;;;3.80;99.90;7.00;103198.00;;;;5100709;27;20188;-76
2024/01/11 16:40:45;;;;;;;0.43;0.43;;;3.80;99.90;7.00;103171.00;;;;5102111;27;20240;-76
2024/01/11 16:43:31;;;;;;;0.30;0.30;;;3.80;99.90;6.90;103203.00;;;;5116569;27;20701;-76
2024/01/11 16:45:57;;;;;;;0.30;0.30;;;3.90;99.90;7.00;103185.00;;;;5107715;27;20194;-76
2024/01/11 16:48:28;;;;;;;0.20;0.20;;;3.80;99.90;6.60;103202.00;;;;5085581;27;20331;-76
2024/01/11 16:50:59;;;;;;;0.30;0.30;;;3.60;99.90;6.80;103185.00;;;;5077408;27;20183;-76
2024/01/11 16:53:32;;;;;;;0.30;0.30;;;3.60;99.90;7.40;103201.00;;;;5101454;27;20214;-76
2024/01/11 16:56:01;;;;;;;0.40;0.40;;;3.90;99.90;7.70;103151.00;;;;5081532;27;20208;-76
2024/01/11 16:58:33;;;;;;;1.70;1.60;;;4.10;99.90;7.70;103208.00;;;;5099857;27;20203;-76
2024/01/11 17:01:01;;;;;;;0.30;0.30;;;4.30;99.90;7.00;103209.00;;;;5110454;27;20213;-76
2024/01/11 17:03:33;;;;;;;0.20;0.20;;;4.10;99.90;6.70;103189.00;;;;5101341;27;20719;-76
2024/01/11 17:06:03;;;;;;;0.30;0.30;;;3.80;99.90;6.70;103183.00;;;;5107793;27;20222;-76
2024/01/11 17:08:29;;;;;;;0.30;0.30;;;3.80;99.90;6.50;103177.00;;;;5102779;27;20192;-76
2024/01/11 17:10:55;;;;;;;0.23;0.23;;;3.60;99.90;6.40;103200.00;;;;5086338;27;20184;-76
2024/01/11 17:13:50;;;;;;;4.37;1.60;;;3.50;99.90;7.00;103196.00;;;;5101899;27;20219;-75
2024/01/11 17:17:01;;;;;;;0.93;0.93;;;3.60;99.90;6.30;103122.00;;;;5057668;28;20647;-75
2024/01/11 17:19:27;;;;;;;4.47;3.03;;;3.40;99.90;7.20;103196.00;;;;5098643;28;20214;-75
2024/01/11 17:21:53;;;;;;;0.30;0.30;;;3.80;99.90;7.30;103189.00;;;;5082739;28;20208;-76
2024/01/11 17:24:44;;;;;;;0.23;0.23;;;4.00;99.90;7.00;103187.00;;;;5113443;27;20175;-76
2024/01/11 17:27:35;;;;;;;0.30;0.30;;;4.10;99.90;6.70;103122.00;;;;5107608;27;20583;-75
2024/01/11 17:30:38;;;;;;;0.30;0.30;;;3.80;99.90;6.80;103197.00;;;;5097324;27;20184;-76
2024/01/11 17:33:05;;;;;;;0.30;0.30;;;4.00;99.90;6.80;103175.00;;;;5103856;27;20527;-76
2024/01/11 17:35:32;;;;;;;0.30;0.30;;;3.90;99.90;7.30;103179.00;;;;5102991;27;20185;-76
2024/01/11 17:37:58;;;;;;;1.07;1.07;;;4.00;99.90;7.60;103128.00;;;;5085425;27;20199;-77
2024/01/11 17:40:24;;;;;;;2.53;1.97;;;4.20;99.90;6.20;103129.00;;;;5111868;27;20184;-76
2024/01/11 17:43:02;;;;;;;1.83;1.73;;;3.90;99.90;6.90;103190.00;;;;5115276;27;20209;-76
2024/01/11 17:46:27;;;;;;;0.30;0.30;;;3.90;99.90;6.60;103118.00;;;;5108264;28;20188;-76
2024/01/11 17:49:48;;;;;;;0.30;0.30;;;3.90;99.90;6.00;103174.00;;;;5101487;28;20185;-76
2024/01/11 17:52:57;;;;;;;1.03;0.80;;;3.50;99.90;5.40;103172.00;;;;5106547;28;20260;-75
2024/01/11 17:56:12;;;;;;;3.23;3.03;;;3.40;99.90;6.50;103177.00;;;;5108835;28;20272;-75
2024/01/11 17:59:16;;;;;;;0.30;0.30;;;3.40;99.90;6.60;103093.00;;;;5090887;27;20175;-75
2024/01/11 18:02:05;;;;;;;0.40;0.40;;;3.60;99.90;6.80;103163.00;;;;5091304;27;20442;-75
2024/01/11 18:05:03;;;;;;;0.30;0.30;;;3.70;99.90;7.50;103177.00;;;;5093455;27;20659;-75
2024/01/11 18:08:00;;;;;;;1.23;0.53;;;4.20;99.90;6.90;103182.00;;;;5112610;28;20189;-75
2024/01/11 18:11:21;;;;;;;1.07;1.07;;;4.20;99.90;6.70;103165.00;;;;5108343;27;20635;-75
2024/01/11 18:14:09;;;;;;;0.30;0.30;;;3.80;99.90;7.10;103163.00;;;;5110932;28;20188;-75
2024/01/11 18:16:53;;;;;;;0.37;0.37;;;4.10;99.90;6.40;103147.00;;;;5099100;28;20192;-75
2024/01/11 18:19:42;;;;;;;2.40;1.67;;;3.80;99.90;6.20;103170.00;;;;5094376;27;20183;-74
2024/01/11 18:22:28;;;;;;;0.30;0.30;;;3.70;99.90;7.00;103164.00;;;;5091321;28;20208;-75
2024/01/11 18:25:02;;;;;;;0.30;0.30;;;3.90;99.90;7.40;103120.00;;;;5107458;27;20176;-75
2024/01/11 18:27:51;;;;;;;2.33;2.20;;;4.20;99.90;6.50;103139.00;;;;5106174;28;20184;-74
2024/01/11 18:30:17;;;;;;;0.43;0.43;;;4.00;99.90;5.80;103134.00;;;;5098780;28;20183;-75
2024/01/11 18:32:45;;;;;;;2.83;2.67;;;3.50;99.90;5.50;103131.00;;;;5123732;28;20330;-75
2024/01/11 18:35:15;;;;;;;2.40;1.77;;;3.20;99.90;6.00;103158.00;;;;5131597;28;20168;-75
2024/01/11 18:37:48;;;;;;;0.30;0.30;;;3.40;99.90;5.10;103133.00;;;;5093613;28;20186;-75
2024/01/11 18:40:30;;;;;;;0.43;0.43;;;3.30;99.90;4.30;103117.00;;;;5097093;28;20230;-75
2024/01/11 18:43:11;;;;;;;1.17;1.17;;;3.00;99.90;4.70;103050.00;;;;5116293;28;20211;-75
2024/01/11 18:46:17;;;;;;;0.30;0.30;;;2.90;99.90;5.10;103130.00;;;;5106213;28;20179;-73
2024/01/11 18:49:09;;;;;;;0.30;0.30;;;3.30;99.90;3.80;103110.00;;;;5080763;28;20333;-74
2024/01/11 18:52:38;;;;;;;1.23;1.23;;;2.80;99.90;4.40;103098.00;;;;5092457;28;20246;-74
2024/01/11 18:55:05;;;;;;;0.30;0.30;;;2.80;99.90;4.60;103080.00;;;;5108274;27;20186;-75
2024/01/11 18:57:39;;;;;;;0.97;0.90;;;2.70;99.90;4.00;103095.00;;;;5103822;27;20211;-74
2024/01/11 19:00:06;;;;;;;1.53;1.53;;;2.80;99.90;4.10;103094.00;;;;5084472;28;20283;-74
2024/01/11 19:02:32;;;;;;;3.80;2.10;;;2.60;99.90;3.60;103082.00;;;;5101657;27;20539;-74
2024/01/11 19:04:58;;;;;;;0.30;0.30;;;2.50;99.90;3.20;103076.00;;;;5102478;27;20184;-74
2024/01/11 19:07:31;;;;;;;1.00;1.00;;;2.40;99.90;3.80;102987.00;;;;5131146;27;20410;-74
2024/01/11 19:09:57;;;;;;;0.40;0.40;;;2.30;99.90;4.30;103044.00;;;;5106690;27;20175;-74